Time;durP1;ratioP1;P1;durP2;ratioP2;P2;SDS_P1;SDS_P2;PMS_P1;PMS_P2;Temp;Humidity;BMP_temperature;BMP_pressure;BME280_temperature;BME280_humidity;BME280_pressure;Samples;Min_cycle;Max_cycle;Signal;HPM_P1;HPM_P2
2023/07/28 00:00:12;;;;;;;24.58;14.15;;;;;;;-144.73;100.00;54506.22;4918013;28;20031;-77
2023/07/28 00:02:37;;;;;;;17.83;9.65;;;;;;;-144.73;100.00;54551.38;4936098;28;20020;-77
2023/07/28 00:05:02;;;;;;;18.40;9.15;;;;;;;-144.73;100.00;54543.16;4964402;28;20053;-77
2023/07/28 00:07:28;;;;;;;12.52;8.50;;;;;;;-144.73;100.00;54539.06;4954770;28;20060;-77
2023/07/28 00:09:53;;;;;;;14.68;9.88;;;;;;;-144.73;100.00;54565.75;4938619;28;20119;-77
2023/07/28 00:12:18;;;;;;;16.80;8.90;;;;;;;-144.73;100.00;54518.53;4977342;28;20052;-77
2023/07/28 00:14:44;;;;;;;12.70;8.65;;;;;;;-144.73;100.00;54545.22;4935790;28;20102;-77
2023/07/28 00:17:10;;;;;;;11.52;8.23;;;;;;;-144.73;100.00;54539.06;4971952;28;20041;-77
2023/07/28 00:19:35;;;;;;;11.27;8.30;;;;;;;-144.73;100.00;54543.16;5011837;28;20036;-77
2023/07/28 00:22:00;;;;;;;17.98;10.20;;;;;;;-144.73;100.00;54584.22;5017067;28;20024;-78
2023/07/28 00:24:26;;;;;;;14.52;9.30;;;;;;;-144.73;100.00;54518.53;5018822;28;20048;-77
2023/07/28 00:26:51;;;;;;;17.02;11.40;;;;;;;-144.73;100.00;54530.84;4916787;28;20028;-78
2023/07/28 00:29:16;;;;;;;14.13;8.80;;;;;;;-144.73;100.00;54512.38;4936861;28;20040;-78
2023/07/28 00:31:42;;;;;;;18.38;10.05;;;;;;;-144.73;100.00;54547.28;4951996;28;20028;-77
2023/07/28 00:34:07;;;;;;;15.65;10.27;;;;;;;-144.73;100.00;54539.06;4953157;28;20041;-77
2023/07/28 00:36:35;;;;;;;20.77;12.32;;;;;;;-144.73;100.00;54559.59;4936531;28;20035;-78
2023/07/28 00:39:00;;;;;;;14.82;8.02;;;;;;;-144.73;100.00;54576.00;4951947;28;20082;-77
2023/07/28 00:41:25;;;;;;;9.38;6.70;;;;;;;-144.73;100.00;54518.53;4953926;28;20020;-77
2023/07/28 00:43:51;;;;;;;16.30;9.30;;;;;;;-144.73;100.00;54502.13;5015220;28;20037;-78
2023/07/28 00:46:17;;;;;;;21.50;9.77;;;;;;;-144.73;100.00;54524.69;4958401;28;20028;-77
2023/07/28 00:48:43;;;;;;;11.63;7.50;;;;;;;-144.73;100.00;54522.63;4935660;28;20040;-77
2023/07/28 00:51:09;;;;;;;11.57;7.47;;;;;;;-144.73;100.00;54541.13;4950443;28;20026;-76
2023/07/28 00:53:34;;;;;;;10.77;6.18;;;;;;;-144.73;100.00;54522.63;4975120;28;20048;-77
2023/07/28 00:56:02;;;;;;;8.75;6.15;;;;;;;-144.73;100.00;54545.22;4963060;28;20023;-77
2023/07/28 00:58:27;;;;;;;12.60;6.63;;;;;;;-144.73;100.00;54563.69;5027311;28;20073;-76
2023/07/28 01:00:53;;;;;;;10.73;6.03;;;;;;;-144.73;100.00;54539.06;5025935;28;20050;-76
2023/07/28 01:03:20;;;;;;;9.43;7.00;;;;;;;-144.73;100.00;54551.38;4955594;28;20051;-76
2023/07/28 01:06:13;;;;;;;11.10;6.15;;;;;;;-144.73;100.00;54555.47;4927773;28;20036;-77
2023/07/28 01:08:41;;;;;;;12.77;6.47;;;;;;;-144.73;100.00;54489.81;4943644;28;20056;-77
2023/07/28 01:11:07;;;;;;;11.00;7.55;;;;;;;-144.73;100.00;54539.06;4912545;28;20032;-77
2023/07/28 01:13:32;;;;;;;13.80;8.35;;;;;;;-144.73;100.00;54547.28;4911937;28;20055;-77
2023/07/28 01:16:00;;;;;;;14.57;8.55;;;;;;;-144.73;100.00;54571.91;4929911;28;20047;-77
2023/07/28 01:18:27;;;;;;;14.48;6.50;;;;;;;-144.73;100.00;54588.31;4912652;28;20127;-77
2023/07/28 01:20:57;;;;;;;7.35;5.57;;;;;;;-144.73;100.00;54582.16;5027809;28;20022;-77
2023/07/28 01:24:02;;;;;;;5.85;4.30;;;;;;;-144.73;100.00;54530.84;4933627;28;20036;-77
2023/07/28 01:26:37;;;;;;;7.03;5.40;;;;;;;-144.73;100.00;54571.91;4943971;28;20438;-77
2023/07/28 01:29:06;;;;;;;8.73;4.90;;;;;;;-144.73;100.00;54565.75;4982942;28;20056;-76
2023/07/28 01:31:32;;;;;;;11.27;7.53;;;;;;;-144.73;100.00;54559.59;4983057;28;20033;-77
2023/07/28 01:33:58;;;;;;;9.40;6.13;;;;;;;-144.73;100.00;54547.28;4942108;28;20036;-77
2023/07/28 01:36:23;;;;;;;6.47;4.28;;;;;;;-144.73;100.00;54522.63;4932547;28;20027;-77
2023/07/28 01:38:49;;;;;;;5.43;4.18;;;;;;;-144.73;100.00;54518.53;4950991;28;20033;-77
2023/07/28 01:41:14;;;;;;;8.15;5.32;;;;;;;-144.73;100.00;54576.00;4972722;28;20385;-77
2023/07/28 01:43:41;;;;;;;5.13;3.63;;;;;;;-144.73;100.00;54582.16;5026239;28;20049;-77
2023/07/28 01:46:08;;;;;;;5.53;4.03;;;;;;;-144.73;100.00;54580.13;4961631;28;20039;-77
2023/07/28 01:48:35;;;;;;;5.70;4.15;;;;;;;-144.73;100.00;54588.31;4968923;28;20045;-77
2023/07/28 01:51:01;;;;;;;4.72;4.10;;;;;;;-144.73;100.00;54576.00;4913781;28;20119;-76
2023/07/28 01:53:28;;;;;;;7.97;5.50;;;;;;;-144.73;100.00;54557.53;4923121;28;20048;-78
2023/07/28 01:55:56;;;;;;;5.93;4.75;;;;;;;-144.73;100.00;54584.22;4912702;28;20039;-77
2023/07/28 01:58:25;;;;;;;6.55;5.50;;;;;;;-144.73;100.00;54571.91;4930702;28;20056;-76
2023/07/28 02:00:53;;;;;;;8.02;5.85;;;;;;;-144.73;100.00;54539.06;4995210;28;20110;-77
2023/07/28 02:03:19;;;;;;;5.18;4.53;;;;;;;-144.73;100.00;54539.06;4924372;28;20040;-76
2023/07/28 02:05:45;;;;;;;5.22;4.35;;;;;;;-144.73;100.00;54580.13;4959490;28;20118;-76
2023/07/28 02:08:12;;;;;;;6.82;4.57;;;;;;;-144.73;100.00;54606.78;5010272;28;20036;-77
2023/07/28 02:10:38;;;;;;;7.05;4.90;;;;;;;-144.73;100.00;54522.63;4921484;28;20032;-78
2023/07/28 02:13:04;;;;;;;6.13;4.50;;;;;;;-144.73;100.00;54553.44;5019913;28;20061;-77
2023/07/28 02:15:30;;;;;;;7.35;6.13;;;;;;;-144.73;100.00;54580.13;4952733;28;20053;-77
2023/07/28 02:17:55;;;;;;;10.43;7.03;;;;;;;-144.73;100.00;54547.28;5010241;28;20182;-77
2023/07/28 02:20:21;;;;;;;10.45;7.00;;;;;;;-144.73;100.00;54604.75;4914036;28;20028;-77
2023/07/28 02:22:46;;;;;;;13.05;6.88;;;;;;;-144.73;100.00;54551.38;4910444;28;20035;-77
2023/07/28 02:25:13;;;;;;;8.07;5.15;;;;;;;-144.73;100.00;54547.28;4912042;28;20036;-77
2023/07/28 02:27:38;;;;;;;9.82;6.47;;;;;;;-144.73;100.00;54571.91;4910759;28;20038;-77
2023/07/28 02:30:05;;;;;;;11.60;7.07;;;;;;;-144.73;100.00;54576.00;5016680;28;20093;-77
2023/07/28 02:32:31;;;;;;;7.30;6.03;;;;;;;-144.73;100.00;54563.69;4925660;28;20055;-77
2023/07/28 02:34:57;;;;;;;9.07;6.55;;;;;;;-144.73;100.00;54551.38;4955483;28;20060;-77
2023/07/28 02:37:24;;;;;;;10.07;7.63;;;;;;;-144.73;100.00;54563.69;4923270;28;20056;-77
2023/07/28 02:39:50;;;;;;;11.20;6.95;;;;;;;-144.73;100.00;54584.22;4906290;28;20041;-77
2023/07/28 02:42:16;;;;;;;12.57;8.55;;;;;;;-144.73;100.00;54522.63;4938132;28;20120;-76
2023/07/28 02:44:41;;;;;;;17.73;11.80;;;;;;;-144.73;100.00;54563.69;4917546;28;20063;-77
2023/07/28 02:47:07;;;;;;;11.13;7.93;;;;;;;-144.73;100.00;54520.59;5017455;28;20051;-76
2023/07/28 02:49:32;;;;;;;12.23;7.30;;;;;;;-144.73;100.00;54559.59;4962428;28;20402;-76
2023/07/28 02:51:58;;;;;;;9.32;6.80;;;;;;;-144.73;100.00;54559.59;4916382;28;20032;-76
2023/07/28 02:54:25;;;;;;;11.48;7.45;;;;;;;-144.73;100.00;54584.22;4950446;28;20082;-76
2023/07/28 02:56:50;;;;;;;12.55;9.20;;;;;;;-144.73;100.00;54539.06;4956262;28;20028;-76
2023/07/28 02:59:16;;;;;;;14.00;9.60;;;;;;;-144.73;100.00;54586.28;4972929;28;20079;-76
2023/07/28 03:01:41;;;;;;;15.30;9.57;;;;;;;-144.73;100.00;54557.53;5013407;28;20024;-77
2023/07/28 03:04:07;;;;;;;20.23;11.48;;;;;;;-144.73;100.00;54580.13;5014218;28;20041;-76
2023/07/28 03:06:32;;;;;;;35.28;12.52;;;;;;;-144.73;100.00;54514.44;4974256;28;20022;-76
2023/07/28 03:08:59;;;;;;;25.13;14.23;;;;;;;-144.73;100.00;54580.13;4935809;28;20037;-77
2023/07/28 03:11:24;;;;;;;17.25;10.98;;;;;;;-144.73;100.00;54547.28;5012556;28;20052;-77
2023/07/28 03:13:49;;;;;;;15.80;9.60;;;;;;;-144.73;100.00;54526.75;4956957;28;20107;-76
2023/07/28 03:16:15;;;;;;;14.82;9.93;;;;;;;-144.73;100.00;54588.31;5004432;28;20092;-77
2023/07/28 03:18:40;;;;;;;12.73;8.70;;;;;;;-144.73;100.00;54571.91;5012713;28;20083;-76
2023/07/28 03:21:06;;;;;;;11.18;7.05;;;;;;;-144.73;100.00;54543.16;4986189;28;20040;-77
2023/07/28 03:23:31;;;;;;;13.52;6.90;;;;;;;-144.73;100.00;54557.53;4919321;28;20039;-76
2023/07/28 03:25:57;;;;;;;12.45;7.55;;;;;;;-144.73;100.00;54539.06;4955188;28;20051;-76
2023/07/28 03:28:22;;;;;;;8.77;6.28;;;;;;;-144.73;100.00;54584.22;4957394;28;20048;-76
2023/07/28 03:30:47;;;;;;;8.43;5.80;;;;;;;-144.73;100.00;54555.47;4957746;28;20028;-76
2023/07/28 03:33:13;;;;;;;7.28;6.05;;;;;;;-144.73;100.00;54576.00;4981302;28;20028;-75
2023/07/28 03:35:38;;;;;;;8.35;6.07;;;;;;;-144.73;100.00;54563.69;4921978;28;20032;-76
2023/07/28 03:38:03;;;;;;;8.70;6.40;;;;;;;-144.73;100.00;54551.38;5021242;28;20039;-76
2023/07/28 03:40:29;;;;;;;6.68;5.72;;;;;;;-144.73;100.00;54590.38;4970769;28;20076;-75
2023/07/28 03:42:54;;;;;;;10.95;6.63;;;;;;;-144.73;100.00;54555.47;4972738;28;20092;-76
2023/07/28 03:45:20;;;;;;;5.32;3.85;;;;;;;-144.73;100.00;54580.13;4956176;28;20028;-76
2023/07/28 03:47:45;;;;;;;9.25;5.97;;;;;;;-144.73;100.00;54555.47;4934174;28;20048;-76
2023/07/28 03:50:11;;;;;;;5.45;4.32;;;;;;;-144.73;100.00;54565.75;4967838;28;20026;-76
2023/07/28 03:52:36;;;;;;;5.57;3.58;;;;;;;-144.73;100.00;54561.63;4937106;28;20071;-76
2023/07/28 03:55:02;;;;;;;6.22;4.30;;;;;;;-144.73;100.00;54578.06;4929116;28;20071;-77
2023/07/28 03:57:27;;;;;;;5.18;4.45;;;;;;;-144.73;100.00;54555.47;4947721;28;20030;-77
2023/07/28 03:59:52;;;;;;;6.85;4.47;;;;;;;-144.73;100.00;54584.22;5000927;28;20046;-76
2023/07/28 04:02:18;;;;;;;4.50;3.83;;;;;;;-144.73;100.00;54571.91;4972358;28;20037;-77
2023/07/28 04:04:43;;;;;;;7.18;5.22;;;;;;;-144.73;100.00;54520.59;4973244;28;20059;-77
2023/07/28 04:07:09;;;;;;;8.10;6.10;;;;;;;-144.73;100.00;54510.31;4962543;28;20024;-77
2023/07/28 04:09:34;;;;;;;6.57;5.10;;;;;;;-144.73;100.00;54571.91;5010914;28;20051;-77
2023/07/28 04:11:59;;;;;;;7.25;5.88;;;;;;;-144.73;100.00;54543.16;4912995;28;20112;-77
2023/07/28 04:14:25;;;;;;;6.82;5.30;;;;;;;-144.73;100.00;54567.81;4912574;28;20044;-77
2023/07/28 04:16:50;;;;;;;6.65;5.43;;;;;;;-144.73;100.00;54576.00;5012180;28;20028;-77
2023/07/28 04:19:16;;;;;;;6.80;5.25;;;;;;;-144.73;100.00;54588.31;4916687;28;20047;-77
2023/07/28 04:21:42;;;;;;;7.72;6.28;;;;;;;-144.73;100.00;54567.81;4914037;28;20039;-77
2023/07/28 04:24:08;;;;;;;6.97;5.68;;;;;;;-144.73;100.00;54596.53;4952302;28;20054;-78
2023/07/28 04:26:34;;;;;;;5.47;4.53;;;;;;;-144.73;100.00;54571.91;4922635;28;20024;-78
2023/07/28 04:29:01;;;;;;;7.45;6.00;;;;;;;-144.73;100.00;54578.06;4953893;28;20042;-78
2023/07/28 04:31:27;;;;;;;7.63;5.35;;;;;;;-144.73;100.00;54539.06;4939004;28;20030;-78
2023/07/28 04:33:53;;;;;;;8.43;6.63;;;;;;;-144.73;100.00;54584.22;4985254;28;20047;-79
2023/07/28 04:36:18;;;;;;;9.95;7.32;;;;;;;-144.73;100.00;54551.38;5029064;28;20021;-79
2023/07/28 04:38:44;;;;;;;8.85;5.50;;;;;;;-144.73;100.00;54571.91;5013434;28;20093;-78
2023/07/28 04:41:09;;;;;;;8.45;6.57;;;;;;;-144.73;100.00;54600.63;4967415;28;20028;-78
2023/07/28 04:43:35;;;;;;;8.23;5.63;;;;;;;-144.73;100.00;54551.38;4977170;28;20439;-78
2023/07/28 04:46:00;;;;;;;7.78;5.53;;;;;;;-144.73;100.00;54567.81;4933891;28;20052;-79
2023/07/28 04:48:26;;;;;;;14.30;7.65;;;;;;;-144.73;100.00;54588.31;4927054;28;20040;-78
2023/07/28 04:50:52;;;;;;;7.65;5.57;;;;;;;-144.73;100.00;54571.91;4914660;28;20023;-78
2023/07/28 04:53:17;;;;;;;8.52;6.10;;;;;;;-144.73;100.00;54547.28;4949524;28;20083;-79
2023/07/28 04:55:43;;;;;;;7.93;5.60;;;;;;;-144.73;100.00;54600.63;4949046;28;20061;-79
2023/07/28 04:58:08;;;;;;;6.50;5.53;;;;;;;-144.73;100.00;54571.91;4955648;28;20040;-78
2023/07/28 05:00:33;;;;;;;5.22;4.53;;;;;;;-144.73;100.00;54567.81;4949572;28;20079;-79
2023/07/28 05:02:59;;;;;;;5.57;4.78;;;;;;;-144.73;100.00;54563.69;4916275;28;20088;-79
2023/07/28 05:05:24;;;;;;;5.80;4.80;;;;;;;-144.73;100.00;54555.47;4949582;28;20020;-79
2023/07/28 05:07:51;;;;;;;7.57;5.25;;;;;;;-144.73;100.00;54559.59;4912572;28;20089;-78
2023/07/28 05:10:16;;;;;;;6.43;4.75;;;;;;;-144.73;100.00;54576.00;4948049;28;20024;-78
2023/07/28 05:12:41;;;;;;;5.70;4.53;;;;;;;-144.73;100.00;54551.38;4914938;28;20039;-78
2023/07/28 05:15:10;;;;;;;6.28;4.20;;;;;;;-144.73;100.00;54580.13;4992438;28;20022;-78
2023/07/28 05:17:36;;;;;;;5.20;4.20;;;;;;;-144.73;100.00;54576.00;4949484;28;20035;-78
2023/07/28 05:20:02;;;;;;;5.38;4.88;;;;;;;-144.73;100.00;54522.63;4911678;28;20024;-79
2023/07/28 05:22:27;;;;;;;5.47;4.82;;;;;;;-144.73;100.00;54584.22;4913578;28;20035;-79
2023/07/28 05:24:53;;;;;;;7.05;4.78;;;;;;;-144.73;100.00;54539.06;4913095;28;20028;-78
2023/07/28 05:27:18;;;;;;;7.03;4.75;;;;;;;-144.73;100.00;54539.06;4913855;28;20119;-78
2023/07/28 05:29:43;;;;;;;13.20;5.32;;;;;;;-144.73;100.00;54580.13;4953352;28;20036;-78
2023/07/28 05:32:09;;;;;;;5.68;4.45;;;;;;;-144.73;100.00;54543.16;4927950;28;20032;-78
2023/07/28 05:34:34;;;;;;;4.30;3.47;;;;;;;-144.73;100.00;54551.38;5011537;28;20067;-78
2023/07/28 05:36:59;;;;;;;4.55;3.40;;;;;;;-144.73;100.00;54543.16;4955602;28;20030;-77
2023/07/28 05:39:25;;;;;;;4.05;3.60;;;;;;;-144.73;100.00;54555.47;4935329;28;20493;-77
2023/07/28 05:41:51;;;;;;;4.32;3.83;;;;;;;-144.73;100.00;54518.53;5011745;28;20055;-78
2023/07/28 05:44:16;;;;;;;10.80;4.60;;;;;;;-144.73;100.00;54584.22;5011169;28;20040;-77
2023/07/28 05:46:42;;;;;;;6.07;4.03;;;;;;;-144.73;100.00;54567.81;4970487;28;20446;-77
2023/07/28 05:49:08;;;;;;;4.97;4.20;;;;;;;-144.73;100.00;54584.22;4924833;28;20124;-78
2023/07/28 05:51:33;;;;;;;4.40;3.67;;;;;;;-144.73;100.00;54559.59;4943442;28;20024;-78
2023/07/28 05:53:59;;;;;;;3.95;3.55;;;;;;;-144.73;100.00;54555.47;4917520;28;20043;-77
2023/07/28 05:56:25;;;;;;;4.32;3.92;;;;;;;-144.73;100.00;54530.84;4917092;28;20028;-77
2023/07/28 05:58:50;;;;;;;5.43;4.93;;;;;;;-144.73;100.00;54530.84;4912483;28;20155;-78
2023/07/28 06:01:16;;;;;;;5.68;4.50;;;;;;;-144.73;100.00;54563.69;4910433;29;20047;-76
2023/07/28 06:03:41;;;;;;;9.60;4.32;;;;;;;-144.73;100.00;54588.31;4909720;28;20036;-77
2023/07/28 06:06:07;;;;;;;7.15;4.20;;;;;;;-144.73;100.00;54559.59;4910538;28;20028;-77
2023/07/28 06:08:33;;;;;;;4.60;3.55;;;;;;;-144.73;100.00;54518.53;4910839;28;20039;-77
2023/07/28 06:10:58;;;;;;;6.30;4.78;;;;;;;-144.73;100.00;54567.81;4911876;28;20476;-77
2023/07/28 06:13:24;;;;;;;5.63;4.20;;;;;;;-144.73;100.00;54539.06;5010106;28;20094;-77
2023/07/28 06:15:49;;;;;;;6.50;5.20;;;;;;;-144.73;100.00;54576.00;4911019;28;20027;-77
2023/07/28 06:18:16;;;;;;;7.50;4.82;;;;;;;-144.73;100.00;54563.69;4922243;28;20119;-77
2023/07/28 06:20:43;;;;;;;5.50;3.75;;;;;;;-144.73;100.00;54565.75;4971734;28;20049;-77
2023/07/28 06:23:08;;;;;;;4.03;3.63;;;;;;;-144.73;100.00;54580.13;4926639;28;20565;-77
2023/07/28 06:25:34;;;;;;;7.88;4.57;;;;;;;-144.73;100.00;54518.53;5026284;28;20018;-76
2023/07/28 06:27:59;;;;;;;4.15;3.33;;;;;;;-144.73;100.00;54551.38;4958726;28;20042;-77
2023/07/28 06:30:25;;;;;;;4.78;3.72;;;;;;;-144.73;100.00;54571.91;5009813;28;20044;-70
2023/07/28 06:32:52;;;;;;;6.20;3.03;;;;;;;-144.73;100.00;54522.63;4912062;28;20048;-70
2023/07/28 06:35:17;;;;;;;4.40;3.85;;;;;;;-144.73;100.00;54588.31;4913944;28;20024;-70
2023/07/28 06:37:43;;;;;;;5.20;3.67;;;;;;;-144.73;100.00;54563.69;4913879;28;20051;-70
2023/07/28 06:40:10;;;;;;;5.00;3.72;;;;;;;-144.73;100.00;54539.06;4913967;28;20050;-72
2023/07/28 06:42:36;;;;;;;4.38;3.08;;;;;;;-144.73;100.00;54551.38;4913946;28;20028;-70
2023/07/28 06:45:03;;;;;;;3.95;3.55;;;;;;;-144.73;100.00;54551.38;4914100;28;20024;-70
2023/07/28 06:47:29;;;;;;;4.45;3.63;;;;;;;-144.73;100.00;54543.16;4913577;28;20024;-70
2023/07/28 06:49:54;;;;;;;3.80;3.40;;;;;;;-144.73;100.00;54551.38;4914193;28;20028;-72
2023/07/28 06:52:19;;;;;;;11.45;4.45;;;;;;;-144.73;100.00;54547.28;4913341;28;20475;-70
2023/07/28 06:54:47;;;;;;;8.73;3.58;;;;;;;-144.73;100.00;54547.28;4914134;28;20115;-72
2023/07/28 06:57:12;;;;;;;3.50;2.95;;;;;;;-144.73;100.00;54539.06;4914121;28;20047;-72
2023/07/28 06:59:38;;;;;;;4.40;3.08;;;;;;;-144.73;100.00;54539.06;4913486;28;20491;-72
2023/07/28 07:02:03;;;;;;;3.95;3.28;;;;;;;-144.73;100.00;54559.59;4913831;28;20024;-74
2023/07/28 07:04:29;;;;;;;3.30;2.80;;;;;;;-144.73;100.00;54543.16;4913414;28;20036;-71
2023/07/28 07:06:54;;;;;;;5.30;3.78;;;;;;;-144.73;100.00;54551.38;4914017;28;20079;-71
2023/07/28 07:09:20;;;;;;;8.38;5.85;;;;;;;-144.73;100.00;54539.06;4931161;28;20044;-71
2023/07/28 07:11:45;;;;;;;6.25;5.25;;;;;;;-144.73;100.00;54547.28;4934065;28;20036;-71
2023/07/28 07:14:10;;;;;;;3.38;2.97;;;;;;;-144.73;100.00;54559.59;4932346;28;20036;-72
2023/07/28 07:16:56;;;;;;;3.90;2.72;;;;;;;-144.73;100.00;54539.06;4928391;28;20036;-73
2023/07/28 07:19:22;;;;;;;4.80;2.63;;;;;;;-144.73;100.00;54571.91;4912970;29;20039;-71
2023/07/28 07:21:50;;;;;;;3.33;3.03;;;;;;;-144.73;100.00;54551.38;5011636;28;20050;-71
2023/07/28 07:24:16;;;;;;;3.67;3.10;;;;;;;-144.73;100.00;54514.44;4922634;29;20036;-71
2023/07/28 07:26:41;;;;;;;7.57;3.08;;;;;;;-144.73;100.00;54571.91;4931931;28;20031;-72
2023/07/28 07:29:08;;;;;;;6.05;2.75;;;;;;;-144.73;100.00;54508.28;4931968;28;20120;-72
2023/07/28 07:31:34;;;;;;;3.05;2.35;;;;;;;-144.73;100.00;54510.31;4932979;28;20097;-72
2023/07/28 07:33:59;;;;;;;3.03;2.60;;;;;;;-144.73;100.00;54530.84;4932257;29;20558;-72
2023/07/28 07:36:25;;;;;;;2.28;2.08;;;;;;;-144.73;100.00;54539.06;4984589;28;20134;-72
2023/07/28 07:38:51;;;;;;;2.67;2.17;;;;;;;-144.73;100.00;54539.06;5012605;28;20026;-74
2023/07/28 07:41:19;;;;;;;3.20;2.63;;;;;;;-144.73;100.00;54557.53;5028816;28;20034;-72
2023/07/28 07:43:46;;;;;;;2.55;2.20;;;;;;;-144.73;100.00;54567.81;5011085;28;20104;-72
2023/07/28 07:46:12;;;;;;;6.15;2.50;;;;;;;-144.73;100.00;54522.63;5011465;28;20028;-72
2023/07/28 07:48:37;;;;;;;2.35;1.98;;;;;;;-144.73;100.00;54514.44;5028742;28;20037;-72
2023/07/28 07:51:03;;;;;;;2.65;2.28;;;;;;;-144.73;100.00;54530.84;5029163;28;20041;-72
2023/07/28 07:53:29;;;;;;;2.67;2.35;;;;;;;-144.73;100.00;54502.13;5028498;28;20030;-72
2023/07/28 07:55:54;;;;;;;3.60;2.00;;;;;;;-144.73;100.00;54526.75;5012252;28;20028;-72
2023/07/28 07:58:19;;;;;;;4.40;2.45;;;;;;;-144.73;100.00;54549.31;5011800;28;20109;-73
2023/07/28 08:00:45;;;;;;;2.25;1.70;;;;;;;-144.73;100.00;54502.13;5011969;28;20030;-73
2023/07/28 08:03:10;;;;;;;1.67;1.58;;;;;;;-144.73;100.00;54604.75;5028379;28;20553;-72
2023/07/28 08:05:36;;;;;;;3.40;2.00;;;;;;;-144.73;100.00;54563.69;5011908;28;20029;-72
2023/07/28 08:08:01;;;;;;;2.08;1.60;;;;;;;-144.73;100.00;54516.47;5011726;28;20038;-73
2023/07/28 08:10:27;;;;;;;4.32;2.25;;;;;;;-144.73;100.00;54539.06;5011673;28;20037;-73
2023/07/28 08:12:53;;;;;;;2.95;2.28;;;;;;;-144.73;100.00;54586.28;5011674;28;20109;-73
2023/07/28 08:15:19;;;;;;;3.67;2.20;;;;;;;-144.73;100.00;54506.22;5028145;28;20029;-72
2023/07/28 08:17:45;;;;;;;1.80;1.70;;;;;;;-144.73;100.00;54524.69;5011428;28;20044;-71
2023/07/28 08:20:10;;;;;;;5.53;2.33;;;;;;;-144.73;100.00;54473.38;5011887;28;20072;-71
2023/07/28 08:22:36;;;;;;;2.97;2.17;;;;;;;-144.73;100.00;54522.63;5011818;28;20029;-71
2023/07/28 08:25:01;;;;;;;2.67;2.20;;;;;;;-144.73;100.00;54530.84;5011955;28;20022;-71
2023/07/28 08:27:27;;;;;;;2.65;1.80;;;;;;;-144.73;100.00;54547.28;5011359;28;20036;-72
2023/07/28 08:29:52;;;;;;;2.40;2.20;;;;;;;-144.73;100.00;54547.28;5011934;28;20076;-72
2023/07/28 08:32:17;;;;;;;2.47;2.08;;;;;;;-144.73;100.00;54530.84;5011934;28;20022;-72
2023/07/28 08:34:43;;;;;;;4.13;2.13;;;;;;;-144.73;100.00;54539.06;5027520;28;20033;-71
2023/07/28 08:37:08;;;;;;;6.20;2.22;;;;;;;-144.73;100.00;54539.06;4976197;28;20039;-75
2023/07/28 08:39:34;;;;;;;4.30;2.67;;;;;;;-144.73;100.00;54514.44;4952708;28;20028;-75
2023/07/28 08:42:03;;;;;;;3.05;2.38;;;;;;;-144.73;100.00;54477.47;4926292;28;20131;-75
2023/07/28 08:44:34;;;;;;;3.83;2.22;;;;;;;-144.73;100.00;54512.38;4933481;28;20061;-74
2023/07/28 08:47:01;;;;;;;4.30;2.08;;;;;;;-144.73;100.00;54545.22;4965210;28;20108;-74
2023/07/28 08:49:27;;;;;;;3.97;2.10;;;;;;;-144.73;100.00;54500.06;4956989;28;20040;-75
2023/07/28 08:51:58;;;;;;;4.25;1.75;;;;;;;-144.73;100.00;54510.31;4950263;28;20052;-75
2023/07/28 08:54:24;;;;;;;4.32;2.08;;;;;;;-144.73;100.00;54485.69;4921275;28;20044;-74
2023/07/28 08:56:50;;;;;;;2.80;1.77;;;;;;;-144.73;100.00;54528.81;4923163;28;20037;-75
2023/07/28 08:59:26;;;;;;;1.90;1.75;;;;;;;-144.73;100.00;54539.06;4924463;28;20036;-76
2023/07/28 09:01:53;;;;;;;3.33;1.50;;;;;;;-144.73;100.00;54493.91;5008384;28;20027;-74
2023/07/28 09:04:20;;;;;;;2.75;1.77;;;;;;;-144.73;100.00;54539.06;4934348;28;20046;-75
2023/07/28 09:06:46;;;;;;;4.68;1.95;;;;;;;-144.73;100.00;54530.84;4924311;28;20578;-75
2023/07/28 09:09:11;;;;;;;3.20;2.30;;;;;;;-144.73;100.00;54512.38;4930588;28;20113;-75
2023/07/28 09:11:44;;;;;;;3.40;2.25;;;;;;;-144.73;100.00;54518.53;4923504;28;20476;-75
2023/07/28 09:14:12;;;;;;;2.58;1.95;;;;;;;-144.73;100.00;54467.22;4927306;28;20032;-75
2023/07/28 09:16:37;;;;;;;5.65;3.90;;;;;;;-144.73;100.00;54489.81;4927662;28;20039;-76
2023/07/28 09:19:09;;;;;;;8.80;7.05;;;;;;;-144.73;100.00;54489.81;4929403;28;20031;-76
2023/07/28 09:21:36;;;;;;;2.55;2.28;;;;;;;-144.73;100.00;54518.53;4923362;28;20082;-73
2023/07/28 09:24:11;;;;;;;7.13;2.20;;;;;;;-144.73;100.00;54539.06;4925179;28;20050;-74
2023/07/28 09:26:42;;;;;;;2.88;2.00;;;;;;;-144.73;100.00;54506.22;4938432;28;20123;-75
2023/07/28 09:29:17;;;;;;;2.33;2.00;;;;;;;-144.73;100.00;54502.13;4924718;28;20035;-76
2023/07/28 09:31:49;;;;;;;2.55;1.80;;;;;;;-144.73;100.00;54473.38;4922867;28;20031;-75
2023/07/28 09:34:26;;;;;;;4.00;2.40;;;;;;;-144.73;100.00;54530.84;5009935;28;20490;-75
2023/07/28 09:36:59;;;;;;;2.88;2.33;;;;;;;-144.73;100.00;54539.06;4921716;28;20517;-76
2023/07/28 09:39:26;;;;;;;2.30;2.03;;;;;;;-144.73;100.00;54604.75;4920340;28;20043;-76
2023/07/28 09:41:52;;;;;;;4.40;2.03;;;;;;;-144.73;100.00;54498.00;4926040;28;20020;-76
2023/07/28 09:44:17;;;;;;;3.83;2.00;;;;;;;-144.73;100.00;54514.44;4926245;28;20039;-76
2023/07/28 09:46:50;;;;;;;3.30;1.85;;;;;;;-144.73;100.00;54508.28;4924882;28;20516;-75
2023/07/28 09:49:22;;;;;;;2.20;1.95;;;;;;;-144.73;100.00;54498.00;5008826;28;20054;-75
2023/07/28 09:51:52;;;;;;;2.17;1.95;;;;;;;-144.73;100.00;54506.22;4922879;28;20031;-75
2023/07/28 09:54:29;;;;;;;2.42;2.00;;;;;;;-144.73;100.00;54477.47;4928423;28;20038;-76
2023/07/28 09:56:59;;;;;;;3.63;1.80;;;;;;;-144.73;100.00;54508.28;4927637;28;20093;-76
2023/07/28 09:59:38;;;;;;;5.90;2.03;;;;;;;-144.73;100.00;54461.06;4927814;28;20082;-76
2023/07/28 10:02:05;;;;;;;1.60;1.40;;;;;;;-144.73;100.00;54553.44;4927233;28;20032;-75
2023/07/28 10:04:31;;;;;;;2.20;1.67;;;;;;;-144.73;100.00;54553.44;4921157;28;20040;-75
2023/07/28 10:06:57;;;;;;;3.20;2.30;;;;;;;-144.73;100.00;54481.59;4925808;28;20038;-75
2023/07/28 10:09:28;;;;;;;4.50;3.10;;;;;;;-144.73;100.00;54522.63;4928420;28;20040;-75
2023/07/28 10:11:55;;;;;;;2.92;2.03;;;;;;;-144.73;100.00;54493.91;4929544;28;20021;-75
2023/07/28 10:14:34;;;;;;;2.05;1.85;;;;;;;-144.73;100.00;54489.81;4934281;28;20036;-75
2023/07/28 10:17:04;;;;;;;1.70;1.60;;;;;;;-144.73;100.00;54456.97;5011054;28;20110;-75
2023/07/28 10:19:39;;;;;;;1.67;1.50;;;;;;;-144.73;100.00;54485.69;4923751;28;20041;-76
2023/07/28 10:22:09;;;;;;;4.40;1.60;;;;;;;-144.73;100.00;54456.97;4909228;28;20047;-75
2023/07/28 10:24:55;;;;;;;3.53;2.45;;;;;;;-144.73;100.00;54428.22;4922449;28;20023;-75
2023/07/28 10:27:38;;;;;;;1.80;1.50;;;;;;;-144.73;98.08;54428.22;4937446;28;20103;-76
2023/07/28 10:30:17;;;;;;;1.77;1.67;;;;;;;-144.73;100.00;54485.69;4930838;28;20035;-75
2023/07/28 10:32:48;;;;;;;2.35;1.80;;;;;;;-144.73;100.00;54469.28;4952564;28;20133;-75
2023/07/28 10:35:16;;;;;;;1.77;1.40;;;;;;;-144.73;100.00;54506.22;4931421;28;20024;-75
2023/07/28 10:37:48;;;;;;;1.63;1.45;;;;;;;-144.73;100.00;54510.31;4964178;28;20050;-76
2023/07/28 10:40:42;;;;;;;1.85;1.50;;;;;;;-144.73;100.00;54504.16;4955079;28;20029;-75
2023/07/28 10:43:08;;;;;;;1.42;1.20;;;;;;;-144.73;100.00;54493.91;5025188;28;20066;-75
2023/07/28 10:45:34;;;;;;;1.80;1.20;;;;;;;-144.73;100.00;54514.44;4959159;28;20024;-74
2023/07/28 10:48:00;;;;;;;2.35;1.67;;;;;;;-144.73;100.00;54471.31;4980089;28;20042;-74
2023/07/28 10:50:30;;;;;;;2.13;1.67;;;;;;;-144.73;100.00;54543.16;4972780;28;20023;-75
2023/07/28 10:52:56;;;;;;;2.80;1.40;;;;;;;-144.73;100.00;54510.31;4997898;28;20036;-75
2023/07/28 10:55:24;;;;;;;2.67;1.85;;;;;;;-144.73;100.00;54485.69;4955487;28;20820;-75
2023/07/28 10:57:51;;;;;;;1.80;1.70;;;;;;;-144.73;100.00;54489.81;5004534;28;20017;-75
2023/07/28 11:00:18;;;;;;;1.50;1.40;;;;;;;-144.73;100.00;54506.22;4963325;28;20042;-75
2023/07/28 11:02:46;;;;;;;2.47;1.65;;;;;;;-144.73;100.00;54522.63;5041910;28;20037;-74
2023/07/28 11:05:27;;;;;;;2.30;1.83;;;;;;;-144.73;100.00;54485.69;4961010;28;20064;-75